Time;durP1;ratioP1;P1;durP2;ratioP2;P2;SDS_P1;SDS_P2;PMS_P1;PMS_P2;Temp;Humidity;BMP_temperature;BMP_pressure;BME280_temperature;BME280_humidity;BME280_pressure;Samples;Min_cycle;Max_cycle;Signal;HPM_P1;HPM_P2
2023/02/15 00:01:36;;;;;;;16.95;10.77;;;;;;;;;;10407901;28;20026;-51
2023/02/15 00:06:37;;;;;;;15.43;11.02;;;;;;;;;;10410248;28;20022;-51
2023/02/15 00:11:49;;;;;;;17.17;10.35;;;;;;;;;;10410990;28;20428;-51
2023/02/15 00:16:52;;;;;;;16.25;10.40;;;;;;;;;;10411173;28;20245;-52
2023/02/15 00:21:52;;;;;;;13.73;9.25;;;;;;;;;;10410953;28;20481;-54
2023/02/15 00:26:53;;;;;;;15.40;10.43;;;;;;;;;;10410532;28;20029;-51
2023/02/15 00:31:54;;;;;;;16.20;10.85;;;;;;;;;;10410754;28;20024;-54
2023/02/15 00:36:55;;;;;;;16.27;9.73;;;;;;;;;;10410179;28;20041;-50
2023/02/15 00:41:55;;;;;;;15.38;9.90;;;;;;;;;;10410661;28;20037;-53
2023/02/15 00:46:56;;;;;;;14.13;10.27;;;;;;;;;;10410312;28;20040;-53
2023/02/15 00:51:56;;;;;;;15.05;10.23;;;;;;;;;;10410065;28;20018;-53
2023/02/15 00:56:57;;;;;;;13.48;9.80;;;;;;;;;;10409644;28;20473;-55
2023/02/15 01:01:57;;;;;;;14.60;10.23;;;;;;;;;;10400663;28;20469;-58
2023/02/15 01:06:58;;;;;;;18.05;9.82;;;;;;;;;;10398151;28;20465;-53
2023/02/15 01:11:58;;;;;;;15.77;9.90;;;;;;;;;;10394121;28;20492;-55
2023/02/15 01:16:59;;;;;;;13.93;9.57;;;;;;;;;;10396529;28;20127;-55
2023/02/15 01:22:00;;;;;;;13.40;9.43;;;;;;;;;;10408983;28;20026;-52
2023/02/15 01:27:00;;;;;;;13.45;9.32;;;;;;;;;;10396388;28;20037;-55
2023/02/15 01:32:01;;;;;;;11.48;9.30;;;;;;;;;;10408483;28;20033;-54
2023/02/15 01:37:01;;;;;;;10.75;8.75;;;;;;;;;;10408067;28;20045;-52
2023/02/15 01:42:02;;;;;;;11.93;8.93;;;;;;;;;;10406411;28;20546;-56
2023/02/15 01:47:03;;;;;;;13.50;9.45;;;;;;;;;;10407946;28;20376;-50
2023/02/15 01:52:03;;;;;;;11.98;8.95;;;;;;;;;;10407443;28;20017;-53
2023/02/15 01:57:14;;;;;;;13.30;9.20;;;;;;;;;;10406569;28;20021;-58
2023/02/15 02:02:20;;;;;;;12.35;9.00;;;;;;;;;;10406482;28;20045;-56
2023/02/15 02:07:26;;;;;;;13.82;9.20;;;;;;;;;;10406627;28;20055;-59
2023/02/15 02:12:26;;;;;;;11.32;8.70;;;;;;;;;;10405733;28;20026;-59
2023/02/15 02:17:57;;;;;;;12.27;8.55;;;;;;;;;;10405712;28;20091;-59
2023/02/15 02:23:30;;;;;;;12.77;8.68;;;;;;;;;;10407290;28;20064;-56
2023/02/15 02:28:51;;;;;;;11.50;7.97;;;;;;;;;;10404034;28;20397;-54
2023/02/15 02:34:01;;;;;;;12.65;8.93;;;;;;;;;;10402782;28;20045;-58
2023/02/15 02:39:32;;;;;;;11.68;8.15;;;;;;;;;;10407063;28;20064;-58
2023/02/15 02:45:09;;;;;;;12.30;7.82;;;;;;;;;;10407267;28;20461;-59
2023/02/15 02:50:27;;;;;;;9.10;7.55;;;;;;;;;;10406721;28;20063;-58
2023/02/15 02:55:38;;;;;;;12.75;8.10;;;;;;;;;;10406535;28;20041;-55
2023/02/15 03:01:15;;;;;;;11.20;8.27;;;;;;;;;;10399156;28;20124;-55
2023/02/15 03:06:21;;;;;;;12.15;8.95;;;;;;;;;;10407048;28;20026;-59
2023/02/15 03:11:21;;;;;;;13.30;8.60;;;;;;;;;;10404643;28;20025;-51
2023/02/15 03:16:25;;;;;;;11.70;7.82;;;;;;;;;;10398092;28;20428;-52
2023/02/15 03:21:38;;;;;;;9.93;7.70;;;;;;;;;;10405096;28;20033;-52
2023/02/15 03:26:40;;;;;;;8.40;7.45;;;;;;;;;;10410685;28;20033;-51
2023/02/15 03:31:45;;;;;;;10.90;8.30;;;;;;;;;;10412385;28;20052;-51
2023/02/15 03:36:53;;;;;;;11.80;7.82;;;;;;;;;;10413123;28;20038;-58
2023/02/15 03:42:33;;;;;;;11.88;7.57;;;;;;;;;;10413415;28;20030;-53
2023/02/15 03:47:47;;;;;;;12.23;6.85;;;;;;;;;;10407497;28;20033;-60
2023/02/15 03:52:47;;;;;;;10.75;7.82;;;;;;;;;;10411560;28;20024;-59
2023/02/15 04:03:45;;;;;;;9.82;7.65;;;;;;;;;;10413113;28;20470;-55
2023/02/15 04:16:02;;;;;;;;;;;;;;;;;;10411007;28;20026;-58
2023/02/15 04:30:02;;;;;;;;;;;;;;;;;;10407270;28;20116;-61
2023/02/15 04:35:05;;;;;;;13.60;6.85;;;;;;;;;;10410815;28;19916;-58
2023/02/15 04:40:08;;;;;;;8.40;6.55;;;;;;;;;;10409667;28;20449;-59
2023/02/15 04:45:09;;;;;;;11.02;6.95;;;;;;;;;;10410642;28;20030;-58
2023/02/15 04:50:10;;;;;;;8.90;6.85;;;;;;;;;;10410719;28;20453;-59
2023/02/15 04:55:10;;;;;;;8.98;6.75;;;;;;;;;;10409955;28;20021;-57
2023/02/15 05:00:11;;;;;;;7.85;6.43;;;;;;;;;;10410402;28;20384;-52
2023/02/15 05:05:14;;;;;;;9.90;6.95;;;;;;;;;;10409801;28;20029;-59
2023/02/15 05:10:15;;;;;;;8.23;6.15;;;;;;;;;;10409472;28;20420;-57
2023/02/15 05:15:16;;;;;;;11.10;7.38;;;;;;;;;;10396990;28;20127;-59
2023/02/15 05:20:18;;;;;;;8.82;6.65;;;;;;;;;;10404129;28;20037;-60
2023/02/15 05:30:39;;;;;;;7.35;6.55;;;;;;;;;;10403137;28;20033;-55
2023/02/15 05:35:40;;;;;;;8.55;6.55;;;;;;;;;;10404120;28;20385;-56
2023/02/15 05:40:40;;;;;;;10.43;6.60;;;;;;;;;;10400266;28;20041;-58
2023/02/15 05:45:46;;;;;;;7.90;6.70;;;;;;;;;;10405953;28;20032;-59
2023/02/15 05:50:46;;;;;;;8.40;6.53;;;;;;;;;;10407431;28;20112;-54
2023/02/15 05:55:50;;;;;;;8.90;6.28;;;;;;;;;;10406218;28;20037;-59
2023/02/15 06:00:50;;;;;;;16.85;6.88;;;;;;;;;;10404629;28;20091;-53
2023/02/15 06:05:52;;;;;;;9.25;6.40;;;;;;;;;;10406011;28;20029;-51
2023/02/15 06:10:53;;;;;;;8.32;6.57;;;;;;;;;;10407017;28;20030;-52
2023/02/15 06:15:53;;;;;;;9.35;6.95;;;;;;;;;;10406099;28;20022;-55
2023/02/15 06:20:54;;;;;;;10.40;7.18;;;;;;;;;;10406125;28;20026;-55
2023/02/15 06:25:54;;;;;;;7.35;5.70;;;;;;;;;;10407197;28;20017;-52
2023/02/15 06:30:55;;;;;;;10.23;7.70;;;;;;;;;;10406344;28;20041;-50
2023/02/15 06:35:56;;;;;;;20.25;9.23;;;;;;;;;;10400371;28;20045;-51
2023/02/15 06:40:56;;;;;;;15.15;9.40;;;;;;;;;;10404746;28;20096;-51
2023/02/15 06:45:57;;;;;;;17.90;9.60;;;;;;;;;;10406810;28;20085;-51
2023/02/15 06:50:58;;;;;;;16.70;9.20;;;;;;;;;;10405580;28;20040;-51
2023/02/15 06:56:08;;;;;;;18.95;10.18;;;;;;;;;;10404777;28;20052;-57
2023/02/15 07:01:09;;;;;;;25.05;11.30;;;;;;;;;;10406767;28;20045;-58
2023/02/15 07:06:11;;;;;;;28.83;10.00;;;;;;;;;;10411485;28;20028;-59
2023/02/15 07:16:30;;;;;;;;;;;;;;;;;;10413912;28;20026;-57
2023/02/15 07:21:30;;;;;;;24.92;9.57;;;;;;;;;;10413359;28;19942;-57
2023/02/15 07:26:32;;;;;;;20.17;9.10;;;;;;;;;;10413328;28;20033;-58
2023/02/15 07:31:32;;;;;;;15.75;10.00;;;;;;;;;;10413573;28;20036;-55
2023/02/15 07:36:33;;;;;;;17.45;9.15;;;;;;;;;;10413513;28;20049;-57
2023/02/15 07:41:34;;;;;;;16.77;8.90;;;;;;;;;;10412830;28;20036;-56
2023/02/15 07:46:34;;;;;;;14.00;8.68;;;;;;;;;;10412960;28;20025;-56
2023/02/15 07:51:35;;;;;;;15.05;8.45;;;;;;;;;;10412719;28;20037;-56
2023/02/15 07:56:35;;;;;;;23.08;8.70;;;;;;;;;;10412391;28;20021;-57
2023/02/15 08:01:38;;;;;;;14.70;7.90;;;;;;;;;;10412503;28;20029;-56
2023/02/15 08:06:38;;;;;;;21.33;9.70;;;;;;;;;;10412161;28;20470;-57
2023/02/15 08:11:40;;;;;;;15.65;8.30;;;;;;;;;;10412309;28;20044;-60
2023/02/15 08:16:49;;;;;;;15.45;8.40;;;;;;;;;;10399236;28;20060;-58
2023/02/15 08:21:53;;;;;;;15.38;8.60;;;;;;;;;;10411776;28;20037;-58
2023/02/15 08:26:54;;;;;;;17.80;9.07;;;;;;;;;;10411142;28;20031;-58
2023/02/15 08:32:04;;;;;;;10.10;7.93;;;;;;;;;;10411547;28;20048;-58
2023/02/15 08:37:05;;;;;;;14.05;8.63;;;;;;;;;;10409765;28;20129;-58
2023/02/15 08:42:06;;;;;;;12.02;7.75;;;;;;;;;;10408865;28;20026;-59
2023/02/15 08:47:06;;;;;;;10.50;7.53;;;;;;;;;;10408565;28;20492;-58
2023/02/15 08:52:07;;;;;;;13.95;8.55;;;;;;;;;;10408421;28;20021;-59
2023/02/15 08:57:09;;;;;;;12.52;8.30;;;;;;;;;;10407991;28;20048;-60
2023/02/15 09:02:10;;;;;;;17.40;8.00;;;;;;;;;;10408167;28;20106;-60
2023/02/15 09:07:11;;;;;;;13.40;7.43;;;;;;;;;;10407821;28;20074;-60
2023/02/15 09:12:11;;;;;;;12.32;7.72;;;;;;;;;;10408231;28;20021;-58
2023/02/15 09:17:12;;;;;;;18.38;8.05;;;;;;;;;;10395958;28;20469;-60
2023/02/15 09:22:12;;;;;;;12.60;7.85;;;;;;;;;;10406949;28;20036;-60
2023/02/15 09:27:13;;;;;;;11.20;7.68;;;;;;;;;;10407089;28;20030;-59
2023/02/15 09:32:15;;;;;;;13.27;7.90;;;;;;;;;;10407170;28;20022;-59
2023/02/15 09:37:15;;;;;;;12.60;7.60;;;;;;;;;;10366819;28;1180613;-56
2023/02/15 09:42:34;;;;;;;11.05;7.00;;;;;;;;;;10408374;28;20029;-55
2023/02/15 09:47:43;;;;;;;13.43;7.07;;;;;;;;;;10408401;28;20029;-55
2023/02/15 09:53:26;;;;;;;10.18;7.43;;;;;;;;;;10406929;28;20101;-58
2023/02/15 09:58:51;;;;;;;10.65;6.90;;;;;;;;;;10404170;28;20034;-57
2023/02/15 10:04:24;;;;;;;10.38;7.28;;;;;;;;;;10400405;28;20492;-57
2023/02/15 10:09:33;;;;;;;11.82;7.40;;;;;;;;;;10402625;28;20037;-59
2023/02/15 10:14:51;;;;;;;;;;;;;;;;;;10399585;28;20080;-58
2023/02/15 10:20:28;;;;;;;11.45;7.07;;;;;;;;;;10419782;28;19913;-55
2023/02/15 10:25:55;;;;;;;11.48;6.93;;;;;;;;;;10407225;28;20041;-59
2023/02/15 10:31:27;;;;;;;11.13;7.57;;;;;;;;;;10407208;28;20116;-56
2023/02/15 10:37:32;;;;;;;11.93;6.95;;;;;;;;;;10410979;28;20102;-57
2023/02/15 10:43:09;;;;;;;11.52;7.13;;;;;;;;;;10415182;28;20069;-58
2023/02/15 10:48:34;;;;;;;9.32;6.68;;;;;;;;;;10407325;28;20075;-57
2023/02/15 10:54:00;;;;;;;9.63;7.18;;;;;;;;;;10414276;28;20051;-58
2023/02/15 10:59:09;;;;;;;10.82;6.80;;;;;;;;;;10414948;28;20171;-60
2023/02/15 11:04:47;;;;;;;8.00;6.35;;;;;;;;;;10414635;28;20420;-58
2023/02/15 11:10:13;;;;;;;11.50;6.70;;;;;;;;;;10414828;28;20068;-60
2023/02/15 11:15:31;;;;;;;9.35;6.30;;;;;;;;;;10393672;28;20034;-60
2023/02/15 11:21:02;;;;;;;9.60;7.03;;;;;;;;;;10413160;28;20033;-60
2023/02/15 11:26:11;;;;;;;8.25;6.28;;;;;;;;;;10380706;28;20463;-60
2023/02/15 11:31:25;;;;;;;11.15;6.93;;;;;;;;;;10412402;28;20030;-58
2023/02/15 11:36:37;;;;;;;9.40;6.32;;;;;;;;;;10404743;28;20041;-60
2023/02/15 11:41:46;;;;;;;8.43;6.32;;;;;;;;;;10412953;28;20369;-60
2023/02/15 11:46:46;;;;;;;8.65;5.95;;;;;;;;;;10411458;28;20025;-60
2023/02/15 11:51:47;;;;;;;9.30;6.13;;;;;;;;;;10413135;28;20037;-60
2023/02/15 11:56:47;;;;;;;7.47;6.20;;;;;;;;;;10412601;28;20076;-59
2023/02/15 12:01:48;;;;;;;8.52;6.35;;;;;;;;;;10412777;28;20283;-60
2023/02/15 12:07:15;;;;;;;9.90;5.93;;;;;;;;;;10412110;28;20032;-58
2023/02/15 12:12:31;;;;;;;7.13;6.05;;;;;;;;;;10403122;28;20083;-60
2023/02/15 12:17:54;;;;;;;7.95;5.72;;;;;;;;;;10399772;28;20043;-55
2023/02/15 12:23:13;;;;;;;9.82;6.32;;;;;;;;;;10411590;28;20493;-60
2023/02/15 12:28:49;;;;;;;7.82;5.82;;;;;;;;;;10408879;28;20022;-58
2023/02/15 12:33:54;;;;;;;9.13;6.30;;;;;;;;;;10408766;28;20039;-59
2023/02/15 12:39:11;;;;;;;8.48;5.55;;;;;;;;;;10405733;28;20053;-58
2023/02/15 12:44:20;;;;;;;8.55;6.55;;;;;;;;;;10409565;28;20037;-60
2023/02/15 12:49:21;;;;;;;10.13;5.80;;;;;;;;;;10409875;28;20120;-58
2023/02/15 12:54:38;;;;;;;8.95;5.95;;;;;;;;;;10410333;28;20056;-59
2023/02/15 13:00:14;;;;;;;9.13;6.30;;;;;;;;;;10408336;28;20082;-60
2023/02/15 13:05:40;;;;;;;8.60;6.15;;;;;;;;;;10391520;28;20045;-59
2023/02/15 13:10:52;;;;;;;8.43;6.03;;;;;;;;;;10405378;28;20040;-59
2023/02/15 13:16:01;;;;;;;7.80;6.00;;;;;;;;;;10405225;28;20129;-60
2023/02/15 13:21:13;;;;;;;8.27;5.82;;;;;;;;;;10409258;28;20109;-59
2023/02/15 13:26:23;;;;;;;10.93;6.10;;;;;;;;;;10408679;28;20022;-58
2023/02/15 13:31:28;;;;;;;9.40;5.85;;;;;;;;;;10409018;28;20029;-56
2023/02/15 13:37:16;;;;;;;8.07;5.88;;;;;;;;;;10407380;28;20481;-57
2023/02/15 13:42:31;;;;;;;7.30;5.45;;;;;;;;;;10374069;28;20061;-59
2023/02/15 13:48:22;;;;;;;7.53;6.05;;;;;;;;;;10408122;28;20033;-59
2023/02/15 13:53:32;;;;;;;14.20;6.75;;;;;;;;;;10406118;28;20041;-59
2023/02/15 13:59:40;;;;;;;10.77;6.70;;;;;;;;;;10407569;28;20025;-60
2023/02/15 14:05:28;;;;;;;13.88;5.68;;;;;;;;;;10279662;28;20039;-57
2023/02/15 14:10:35;;;;;;;13.73;6.70;;;;;;;;;;10271518;28;20039;-59
2023/02/15 14:15:54;;;;;;;12.80;6.97;;;;;;;;;;10279867;28;20035;-57
2023/02/15 14:21:26;;;;;;;8.75;6.03;;;;;;;;;;10264835;28;20062;-55
2023/02/15 14:26:34;;;;;;;8.35;6.20;;;;;;;;;;10279430;28;20038;-59
2023/02/15 14:31:40;;;;;;;12.35;6.85;;;;;;;;;;10282770;28;20186;-57
2023/02/15 14:36:41;;;;;;;7.95;6.07;;;;;;;;;;10405423;28;20167;-56
2023/02/15 14:41:52;;;;;;;8.10;5.95;;;;;;;;;;10406923;28;20025;-55
2023/02/15 14:47:07;;;;;;;11.35;6.50;;;;;;;;;;10406170;28;20424;-55
2023/02/15 14:52:12;;;;;;;9.63;6.53;;;;;;;;;;10405941;28;20024;-57
2023/02/15 14:57:13;;;;;;;13.75;6.38;;;;;;;;;;10406326;28;20430;-59
2023/02/15 15:02:44;;;;;;;9.27;6.53;;;;;;;;;;10406575;28;20021;-59
2023/02/15 15:07:55;;;;;;;8.73;6.03;;;;;;;;;;10405951;28;20033;-54
2023/02/15 15:12:57;;;;;;;11.73;6.90;;;;;;;;;;10405507;28;20032;-54
2023/02/15 15:18:09;;;;;;;9.60;6.32;;;;;;;;;;10405058;28;20044;-53
2023/02/15 15:23:15;;;;;;;9.75;6.57;;;;;;;;;;10410897;28;20430;-54
2023/02/15 15:28:34;;;;;;;10.77;6.65;;;;;;;;;;10413442;28;20018;-53
2023/02/15 15:34:21;;;;;;;8.80;6.25;;;;;;;;;;10413348;28;20489;-53
2023/02/15 15:40:15;;;;;;;8.88;6.30;;;;;;;;;;10412230;28;20053;-55
2023/02/15 15:45:53;;;;;;;9.05;6.20;;;;;;;;;;10389713;28;20481;-55
2023/02/15 15:50:58;;;;;;;10.52;7.30;;;;;;;;;;10410730;28;20477;-55
2023/02/15 15:56:06;;;;;;;7.82;6.10;;;;;;;;;;10412631;28;20048;-54
2023/02/15 16:01:11;;;;;;;12.30;6.25;;;;;;;;;;10411428;28;20033;-60
2023/02/15 16:06:14;;;;;;;10.38;6.68;;;;;;;;;;10412032;28;20554;-59
2023/02/15 16:11:26;;;;;;;8.32;6.10;;;;;;;;;;10411977;28;20469;-53
2023/02/15 16:16:29;;;;;;;9.00;6.45;;;;;;;;;;10399751;28;20537;-55
2023/02/15 16:21:34;;;;;;;8.50;6.25;;;;;;;;;;10411535;28;20036;-54
2023/02/15 16:26:47;;;;;;;8.65;6.15;;;;;;;;;;10409986;28;20025;-55
2023/02/15 16:32:20;;;;;;;7.53;6.10;;;;;;;;;;10411187;28;20461;-54
2023/02/15 16:37:26;;;;;;;8.73;6.25;;;;;;;;;;10398767;28;20080;-54
2023/02/15 16:42:27;;;;;;;7.60;5.82;;;;;;;;;;10410967;28;20083;-56
2023/02/15 16:47:31;;;;;;;9.68;6.93;;;;;;;;;;10410752;28;20029;-54
2023/02/15 16:52:32;;;;;;;7.35;6.18;;;;;;;;;;10409421;28;20108;-55
2023/02/15 16:57:36;;;;;;;9.13;6.63;;;;;;;;;;10409848;28;20465;-59
2023/02/15 17:02:36;;;;;;;9.48;6.32;;;;;;;;;;10410238;28;20033;-55
2023/02/15 17:07:48;;;;;;;9.65;6.78;;;;;;;;;;10409828;28;20512;-53
2023/02/15 17:13:00;;;;;;;9.77;6.78;;;;;;;;;;10408282;28;20040;-52
2023/02/15 17:18:21;;;;;;;9.95;6.35;;;;;;;;;;10396866;28;20301;-55
2023/02/15 17:23:41;;;;;;;11.63;6.88;;;;;;;;;;10409421;28;20083;-54
2023/02/15 17:28:58;;;;;;;9.10;7.00;;;;;;;;;;10402461;28;20044;-53
2023/02/15 17:34:00;;;;;;;10.82;7.05;;;;;;;;;;10405972;28;20044;-51
2023/02/15 17:39:17;;;;;;;10.82;7.43;;;;;;;;;;10407226;28;20183;-59
2023/02/15 17:44:18;;;;;;;10.75;6.85;;;;;;;;;;10399226;28;20084;-59
2023/02/15 17:49:26;;;;;;;9.63;6.38;;;;;;;;;;10402545;28;20029;-59
2023/02/15 18:15:53;;;;;;;12.55;7.07;;;;;;;;;;10406706;28;20186;-56
2023/02/15 18:20:54;;;;;;;14.73;7.22;;;;;;;;;;10422769;28;20392;-55
2023/02/15 18:25:54;;;;;;;13.05;7.07;;;;;;;;;;10407156;28;20028;-52
2023/02/15 18:30:55;;;;;;;15.07;7.55;;;;;;;;;;10407028;28;20098;-54
2023/02/15 18:35:55;;;;;;;12.10;6.90;;;;;;;;;;10405862;28;20068;-53
2023/02/15 18:40:56;;;;;;;10.65;6.40;;;;;;;;;;10406246;28;20503;-52
2023/02/15 18:45:57;;;;;;;8.57;6.40;;;;;;;;;;10405891;28;20120;-52
2023/02/15 18:50:57;;;;;;;8.95;6.10;;;;;;;;;;10407224;28;20034;-55
2023/02/15 18:55:58;;;;;;;9.95;6.63;;;;;;;;;;10406786;28;20461;-56
2023/02/15 19:00:59;;;;;;;10.20;6.57;;;;;;;;;;10414015;28;20111;-55
2023/02/15 19:06:00;;;;;;;8.93;6.63;;;;;;;;;;10412582;28;20025;-56
2023/02/15 19:11:00;;;;;;;10.57;6.28;;;;;;;;;;10414636;28;20432;-54
2023/02/15 19:16:03;;;;;;;9.00;6.43;;;;;;;;;;10385306;28;20385;-55
2023/02/15 19:21:04;;;;;;;9.40;6.10;;;;;;;;;;10394105;28;20114;-56
2023/02/15 19:26:05;;;;;;;8.05;5.90;;;;;;;;;;10401383;28;20068;-53
2023/02/15 19:31:11;;;;;;;13.13;6.35;;;;;;;;;;10411220;28;20056;-55
2023/02/15 19:36:17;;;;;;;8.45;6.07;;;;;;;;;;10412026;28;20038;-54
2023/02/15 19:41:29;;;;;;;10.95;5.80;;;;;;;;;;10407800;28;20436;-55
2023/02/15 19:46:30;;;;;;;7.30;5.57;;;;;;;;;;10411566;28;20033;-55
2023/02/15 19:51:31;;;;;;;8.35;5.82;;;;;;;;;;10412879;28;20037;-56
2023/02/15 19:56:32;;;;;;;7.38;5.80;;;;;;;;;;10411895;28;20068;-54
2023/02/15 20:01:32;;;;;;;7.63;5.40;;;;;;;;;;10413111;28;20040;-58
2023/02/15 20:06:33;;;;;;;9.57;6.70;;;;;;;;;;10406455;28;20040;-56
2023/02/15 20:11:33;;;;;;;9.27;6.25;;;;;;;;;;10412524;28;20033;-55
2023/02/15 20:16:34;;;;;;;10.05;5.72;;;;;;;;;;10410969;28;20030;-56
2023/02/15 20:21:36;;;;;;;8.82;5.97;;;;;;;;;;10411458;28;20026;-58
2023/02/15 20:26:37;;;;;;;7.63;5.85;;;;;;;;;;10410539;28;20136;-58
2023/02/15 20:31:38;;;;;;;10.18;6.40;;;;;;;;;;10396624;28;20032;-56
2023/02/15 20:36:40;;;;;;;9.35;6.03;;;;;;;;;;10383139;28;20046;-58
2023/02/15 20:41:46;;;;;;;28.10;8.23;;;;;;;;;;10374451;28;20029;-58
2023/02/15 20:46:49;;;;;;;16.48;7.85;;;;;;;;;;10396474;28;20034;-57
2023/02/15 20:51:51;;;;;;;15.45;7.53;;;;;;;;;;10400890;28;20032;-58
2023/02/15 20:56:53;;;;;;;13.80;7.75;;;;;;;;;;10402467;28;20388;-58
2023/02/15 21:02:17;;;;;;;16.92;8.85;;;;;;;;;;10402948;28;20043;-58
2023/02/15 21:07:20;;;;;;;19.30;8.93;;;;;;;;;;10401949;28;20088;-58
2023/02/15 21:12:21;;;;;;;15.27;9.55;;;;;;;;;;10401237;28;20029;-58
2023/02/15 21:17:22;;;;;;;17.38;9.90;;;;;;;;;;10395606;28;20451;-59
2023/02/15 21:22:23;;;;;;;17.02;9.88;;;;;;;;;;10403805;28;20026;-59
2023/02/15 21:27:24;;;;;;;15.35;10.63;;;;;;;;;;10404932;28;20128;-59
2023/02/15 21:32:24;;;;;;;19.25;10.10;;;;;;;;;;10401107;28;21176;-59
2023/02/15 21:37:32;;;;;;;18.23;11.18;;;;;;;;;;10403589;28;20463;-59
2023/02/15 21:48:00;;;;;;;16.40;9.80;;;;;;;;;;10398237;28;20131;-58
2023/02/15 21:53:02;;;;;;;16.50;10.32;;;;;;;;;;10394781;28;20450;-58
2023/02/15 21:58:03;;;;;;;17.98;9.95;;;;;;;;;;10400114;28;20068;-58
2023/02/15 22:03:04;;;;;;;17.85;11.45;;;;;;;;;;10400147;28;20168;-55
2023/02/15 22:08:12;;;;;;;16.60;10.00;;;;;;;;;;10391868;28;20029;-56
2023/02/15 22:13:18;;;;;;;22.48;10.70;;;;;;;;;;10403122;28;20041;-58
2023/02/15 22:18:28;;;;;;;21.30;11.65;;;;;;;;;;10396186;28;20025;-59
2023/02/15 22:23:29;;;;;;;18.48;11.18;;;;;;;;;;10401317;28;20048;-59
2023/02/15 22:28:36;;;;;;;21.10;12.15;;;;;;;;;;10406802;28;20022;-59
2023/02/15 22:33:40;;;;;;;21.75;11.15;;;;;;;;;;10414089;28;20029;-58
2023/02/15 22:38:41;;;;;;;19.25;11.50;;;;;;;;;;10409503;28;20054;-54
2023/02/15 22:43:44;;;;;;;32.63;12.32;;;;;;;;;;10411856;28;20037;-55
2023/02/15 22:48:46;;;;;;;26.08;12.02;;;;;;;;;;10411511;28;20037;-55
2023/02/15 22:53:53;;;;;;;29.05;14.43;;;;;;;;;;10395825;28;20030;-57
2023/02/15 22:59:03;;;;;;;26.30;12.48;;;;;;;;;;10403597;28;20036;-57
2023/02/15 23:04:03;;;;;;;21.50;12.25;;;;;;;;;;10403318;28;20044;-59
2023/02/15 23:09:04;;;;;;;22.20;12.60;;;;;;;;;;10407805;28;20029;-55
2023/02/15 23:14:05;;;;;;;25.90;12.27;;;;;;;;;;10410100;28;20033;-57
2023/02/15 23:19:11;;;;;;;22.73;13.02;;;;;;;;;;10404222;28;20052;-58
2023/02/15 23:24:24;;;;;;;19.67;13.20;;;;;;;;;;10401504;28;20028;-58
2023/02/15 23:29:25;;;;;;;21.98;13.60;;;;;;;;;;10402511;28;20040;-57
2023/02/15 23:34:28;;;;;;;21.60;14.30;;;;;;;;;;10400767;28;20363;-55
2023/02/15 23:44:48;;;;;;;21.83;13.40;;;;;;;;;;10403877;28;20045;-55
2023/02/15 23:49:48;;;;;;;19.35;13.38;;;;;;;;;;10404266;28;20420;-54
2023/02/15 23:54:49;;;;;;;18.98;12.80;;;;;;;;;;10395473;28;20091;-55
2023/02/15 23:59:50;;;;;;;29.27;12.70;;;;;;;;;;10407617;28;20037;-49
